Time;durP1;ratioP1;P1;durP2;ratioP2;P2;SDS_P1;SDS_P2;PMS_P1;PMS_P2;Temp;Humidity;BMP_temperature;BMP_pressure;BME280_temperature;BME280_humidity;BME280_pressure;Samples;Min_cycle;Max_cycle;Signal;HPM_P1;HPM_P2
2023/05/12 00:02:28;;;;;;;0.22;0.22;;;22.30;47.00;;;;;;6337434;28;20112;-52
2023/05/12 00:05:30;;;;;;;;;;;22.30;47.00;;;;;;6338600;28;20456;-51
2023/05/12 00:08:32;;;;;;;0.75;0.30;;;21.80;47.10;;;;;;6339224;28;20545;-51
2023/05/12 00:11:35;;;;;;;0.20;0.20;;;22.30;47.10;;;;;;6334508;28;20036;-52
2023/05/12 00:14:38;;;;;;;0.28;0.28;;;21.80;46.90;;;;;;6339502;28;20040;-51
2023/05/12 00:17:39;;;;;;;0.85;0.30;;;22.10;47.00;;;;;;6340016;28;20036;-48
2023/05/12 00:20:41;;;;;;;0.20;0.20;;;22.20;47.20;;;;;;6340093;28;20047;-49
2023/05/12 00:23:43;;;;;;;0.28;0.10;;;21.90;47.10;;;;;;6340878;28;20053;-53
2023/05/12 00:26:44;;;;;;;;;;;21.90;47.20;;;;;;6335998;28;20039;-52
2023/05/12 00:29:48;;;;;;;0.40;0.25;;;22.20;47.60;;;;;;6336061;28;19920;-48
2023/05/12 00:32:50;;;;;;;0.30;0.22;;;22.20;47.50;;;;;;6340040;28;20042;-50
2023/05/12 00:35:52;;;;;;;0.30;0.30;;;22.10;47.40;;;;;;6339090;28;20695;-52
2023/05/12 00:38:55;;;;;;;0.77;0.30;;;22.30;47.60;;;;;;6339892;28;20036;-50
2023/05/12 00:41:57;;;;;;;0.30;0.20;;;22.20;47.60;;;;;;6339924;28;20042;-51
2023/05/12 00:44:59;;;;;;;0.25;0.20;;;22.30;47.50;;;;;;6338391;28;20035;-50
2023/05/12 00:48:00;;;;;;;;;;;22.10;47.70;;;;;;6339271;28;20741;-50
2023/05/12 00:51:05;;;;;;;0.40;0.30;;;21.70;47.60;;;;;;6338881;28;19920;-50
2023/05/12 00:54:06;;;;;;;0.30;0.28;;;22.10;47.50;;;;;;6339010;28;20107;-45
2023/05/12 00:57:07;;;;;;;;;;;22.30;47.90;;;;;;6344896;28;20039;-50
2023/05/12 01:00:10;;;;;;;0.10;0.10;;;22.20;48.00;;;;;;6343446;28;19927;-49
2023/05/12 01:03:14;;;;;;;0.63;0.30;;;21.80;47.40;;;;;;6343306;28;20042;-50
2023/05/12 01:06:23;;;;;;;0.30;0.30;;;22.10;47.50;;;;;;6343744;28;20036;-50
2023/05/12 01:09:26;;;;;;;0.30;0.13;;;22.10;47.40;;;;;;6343965;28;20043;-50
2023/05/12 01:12:31;;;;;;;0.20;0.20;;;22.10;47.50;;;;;;6333058;22;20071;-59
2023/05/12 01:15:33;;;;;;;0.20;0.20;;;22.10;47.40;;;;;;6301284;28;20690;-59
2023/05/12 01:18:36;;;;;;;0.45;0.20;;;22.10;47.40;;;;;;6298100;28;20040;-59
2023/05/12 01:21:42;;;;;;;0.20;0.20;;;22.10;47.20;;;;;;6297697;28;20040;-59
2023/05/12 01:24:47;;;;;;;0.55;0.32;;;22.10;47.30;;;;;;6298253;28;20040;-59
2023/05/12 01:27:55;;;;;;;0.30;0.10;;;22.10;47.20;;;;;;6280750;28;20057;-59
2023/05/12 01:30:57;;;;;;;0.52;0.38;;;21.90;47.10;;;;;;6296473;28;20041;-59
2023/05/12 01:33:59;;;;;;;0.28;0.20;;;22.10;47.20;;;;;;6278652;28;20051;-58
2023/05/12 01:37:01;;;;;;;0.32;0.30;;;22.00;47.30;;;;;;6296109;28;20072;-59
2023/05/12 01:40:05;;;;;;;0.28;0.28;;;22.10;47.50;;;;;;6297529;28;20038;-59
2023/05/12 01:43:07;;;;;;;0.80;0.40;;;22.10;47.40;;;;;;6298218;28;20068;-59
2023/05/12 01:46:10;;;;;;;0.38;0.30;;;22.00;47.40;;;;;;6297227;28;20135;-59
2023/05/12 01:49:17;;;;;;;0.43;0.30;;;22.00;47.50;;;;;;6296967;28;20587;-59
2023/05/12 01:52:20;;;;;;;0.50;0.38;;;21.90;47.50;;;;;;6296681;28;20391;-59
2023/05/12 01:55:22;;;;;;;;;;;22.00;47.70;;;;;;6296732;28;20033;-58
2023/05/12 01:58:27;;;;;;;0.40;0.30;;;21.60;47.60;;;;;;6293062;28;19928;-58
2023/05/12 02:01:31;;;;;;;0.52;0.30;;;21.60;47.50;;;;;;6292502;28;20040;-57
2023/05/12 02:04:33;;;;;;;0.20;0.20;;;22.00;47.80;;;;;;6291875;28;20035;-57
2023/05/12 02:07:37;;;;;;;0.50;0.30;;;21.90;47.80;;;;;;6293239;28;20037;-58
2023/05/12 02:10:38;;;;;;;0.30;0.30;;;21.90;47.70;;;;;;6292253;28;20045;-58
2023/05/12 02:13:41;;;;;;;;;;;22.00;47.90;;;;;;6292800;28;20494;-58
2023/05/12 02:16:42;;;;;;;0.20;0.20;;;22.00;47.20;;;;;;6293281;28;19927;-58
2023/05/12 02:19:44;;;;;;;0.30;0.30;;;21.60;47.60;;;;;;6292908;28;20051;-58
2023/05/12 02:22:49;;;;;;;0.60;0.20;;;22.00;47.80;;;;;;6293127;28;20037;-58
2023/05/12 02:25:50;;;;;;;;;;;21.80;47.70;;;;;;6293580;28;20078;-58
2023/05/12 02:28:53;;;;;;;0.40;0.30;;;21.80;48.00;;;;;;6293203;28;19921;-58
2023/05/12 02:31:56;;;;;;;0.30;0.22;;;21.90;47.70;;;;;;6293634;28;20411;-57
2023/05/12 02:34:59;;;;;;;0.10;0.10;;;22.00;47.90;;;;;;6292776;28;20060;-57
2023/05/12 02:38:01;;;;;;;0.25;0.20;;;21.60;46.80;;;;;;6276141;28;20033;-57
2023/05/12 02:41:06;;;;;;;0.30;0.20;;;21.80;47.80;;;;;;6293660;28;20086;-58
2023/05/12 02:44:09;;;;;;;0.20;0.20;;;21.90;48.00;;;;;;6290375;28;20130;-57
2023/05/12 02:47:11;;;;;;;0.45;0.32;;;21.90;47.90;;;;;;6291623;28;20075;-58
2023/05/12 02:50:12;;;;;;;;;;;21.80;47.80;;;;;;6293103;28;20041;-58
2023/05/12 02:53:13;;;;;;;0.40;0.22;;;21.50;47.90;;;;;;6292280;28;20394;-58
2023/05/12 02:56:16;;;;;;;;;;;21.60;47.80;;;;;;6274587;28;20048;-58
2023/05/12 02:59:18;;;;;;;0.30;0.30;;;21.90;48.10;;;;;;6275384;28;19920;-58
2023/05/12 03:02:20;;;;;;;0.43;0.20;;;21.80;47.90;;;;;;6294161;28;20040;-58
2023/05/12 03:05:21;;;;;;;0.20;0.10;;;22.00;48.00;;;;;;6293615;28;20413;-58
2023/05/12 03:08:24;;;;;;;0.20;0.15;;;21.80;47.90;;;;;;6293993;28;20495;-58
2023/05/12 03:11:26;;;;;;;0.32;0.20;;;21.80;47.80;;;;;;6297009;28;20036;-58
2023/05/12 03:14:31;;;;;;;0.20;0.20;;;21.50;47.50;;;;;;6296282;28;20086;-58
2023/05/12 03:17:33;;;;;;;0.40;0.30;;;21.70;47.80;;;;;;6295579;28;20079;-58
2023/05/12 03:20:34;;;;;;;0.20;0.20;;;21.70;47.70;;;;;;6292129;28;20028;-57
2023/05/12 03:23:36;;;;;;;;;;;21.80;47.80;;;;;;6291605;28;20044;-56
2023/05/12 03:26:37;;;;;;;0.25;0.15;;;21.60;47.90;;;;;;6290772;28;19920;-57
2023/05/12 03:29:40;;;;;;;0.28;0.20;;;21.90;47.90;;;;;;6289788;28;20041;-57
2023/05/12 03:32:43;;;;;;;0.43;0.32;;;21.80;47.70;;;;;;6290430;28;20526;-56
2023/05/12 03:35:47;;;;;;;0.35;0.28;;;21.30;47.50;;;;;;6290366;28;20064;-56
2023/05/12 03:38:48;;;;;;;0.30;0.30;;;21.90;47.90;;;;;;6290197;28;20041;-56
2023/05/12 03:41:50;;;;;;;;;;;21.80;47.70;;;;;;6290758;28;20052;-57
2023/05/12 03:44:53;;;;;;;0.45;0.20;;;21.90;48.10;;;;;;6290032;28;20336;-56
2023/05/12 03:47:56;;;;;;;0.50;0.30;;;21.80;47.70;;;;;;6288852;28;20120;-57
2023/05/12 03:50:57;;;;;;;;;;;21.80;47.80;;;;;;6289373;28;20044;-56
2023/05/12 03:53:58;;;;;;;0.50;0.30;;;21.60;47.90;;;;;;6289808;28;19920;-55
2023/05/12 03:57:02;;;;;;;0.65;0.30;;;21.80;47.80;;;;;;6289741;28;20036;-56
2023/05/12 04:00:05;;;;;;;0.30;0.20;;;21.70;47.70;;;;;;6271511;28;20569;-56
2023/05/12 04:03:14;;;;;;;0.20;0.20;;;21.40;47.30;;;;;;6289995;28;20083;-57
2023/05/12 04:06:15;;;;;;;0.20;0.20;;;21.70;47.70;;;;;;6289698;28;20044;-56
2023/05/12 04:09:17;;;;;;;;;;;21.80;47.70;;;;;;6289691;28;20487;-56
2023/05/12 04:12:18;;;;;;;;;;;21.30;47.60;;;;;;6290391;28;20015;-57
2023/05/12 04:15:20;;;;;;;0.40;0.30;;;21.70;47.90;;;;;;6289838;28;20406;-56
2023/05/12 04:18:22;;;;;;;0.20;0.20;;;21.70;47.80;;;;;;6289323;28;20064;-56
2023/05/12 04:21:24;;;;;;;0.50;0.30;;;21.60;47.80;;;;;;6287038;28;20037;-56
2023/05/12 04:24:26;;;;;;;;;;;21.70;47.90;;;;;;6288765;28;20040;-57
2023/05/12 04:27:28;;;;;;;0.30;0.22;;;21.30;48.00;;;;;;6290250;28;19920;-57
2023/05/12 04:30:30;;;;;;;;;;;21.70;48.00;;;;;;6293218;28;20043;-57
2023/05/12 04:33:31;;;;;;;0.30;0.30;;;21.80;48.50;;;;;;6292898;28;19927;-57
2023/05/12 04:36:33;;;;;;;0.20;0.20;;;21.40;48.20;;;;;;6292462;28;20530;-54
2023/05/12 04:39:35;;;;;;;0.30;0.30;;;21.40;48.30;;;;;;6292612;28;20040;-57
2023/05/12 04:42:37;;;;;;;0.20;0.20;;;21.30;48.50;;;;;;6292114;28;20039;-56
2023/05/12 04:45:41;;;;;;;0.20;0.20;;;21.60;48.80;;;;;;6292072;28;20029;-55
2023/05/12 04:48:43;;;;;;;0.30;0.30;;;21.60;48.90;;;;;;6291730;28;20139;-56
2023/05/12 04:51:44;;;;;;;0.32;0.32;;;21.70;49.10;;;;;;6291455;28;20047;-55
2023/05/12 04:54:46;;;;;;;;;;;21.50;49.10;;;;;;6292788;28;20043;-56
2023/05/12 04:57:47;;;;;;;0.52;0.30;;;21.60;49.50;;;;;;6291291;28;19937;-56
2023/05/12 05:00:50;;;;;;;0.30;0.30;;;21.30;49.10;;;;;;6291409;28;20137;-56
2023/05/12 05:03:51;;;;;;;0.47;0.30;;;21.60;49.40;;;;;;6291593;28;20036;-57
2023/05/12 05:06:54;;;;;;;0.20;0.20;;;21.60;49.50;;;;;;6289887;28;20078;-56
2023/05/12 05:09:57;;;;;;;0.30;0.30;;;21.60;49.60;;;;;;6291483;28;20171;-54
2023/05/12 05:12:58;;;;;;;0.65;0.30;;;21.60;49.70;;;;;;6292214;28;20054;-55
2023/05/12 05:16:02;;;;;;;0.20;0.20;;;21.60;49.60;;;;;;6291691;28;20064;-56
2023/05/12 05:19:06;;;;;;;0.30;0.30;;;21.60;48.70;;;;;;6273380;28;20572;-56
2023/05/12 05:22:23;;;;;;;0.20;0.20;;;21.60;49.70;;;;;;6290785;28;20028;-56
2023/05/12 05:25:25;;;;;;;0.30;0.30;;;21.50;49.80;;;;;;6290841;28;20261;-57
2023/05/12 05:28:27;;;;;;;0.10;0.10;;;21.50;49.80;;;;;;6291580;28;20037;-58
2023/05/12 05:31:29;;;;;;;;;;;21.10;49.60;;;;;;6291478;28;20039;-58
2023/05/12 05:34:31;;;;;;;0.40;0.28;;;21.10;49.90;;;;;;6290589;28;19920;-58
2023/05/12 05:37:34;;;;;;;0.20;0.20;;;21.50;49.80;;;;;;6289494;28;20071;-58
2023/05/12 05:40:35;;;;;;;;;;;21.70;50.00;;;;;;6278297;28;20037;-59
2023/05/12 05:43:53;;;;;;;0.20;0.20;;;21.60;50.30;;;;;;6270307;28;19942;-59
2023/05/12 05:46:57;;;;;;;0.20;0.20;;;21.40;49.90;;;;;;6271122;28;20079;-58
2023/05/12 05:50:00;;;;;;;0.30;0.20;;;21.50;49.90;;;;;;6288189;28;20101;-59
2023/05/12 05:53:02;;;;;;;0.50;0.20;;;21.60;50.00;;;;;;6288787;28;20773;-58
2023/05/12 05:56:05;;;;;;;0.20;0.20;;;21.30;49.90;;;;;;6289456;28;20306;-59
2023/05/12 05:59:07;;;;;;;0.35;0.35;;;18.80;48.50;;;;;;6288673;28;20375;-59
2023/05/12 06:02:09;;;;;;;;;;;21.70;50.10;;;;;;6287782;28;20098;-59
2023/05/12 06:05:11;;;;;;;;;;;21.30;52.00;;;;;;6286909;28;19995;-59
2023/05/12 06:08:15;;;;;;;;;;;21.60;51.90;;;;;;6256054;28;20770;-59
2023/05/12 06:11:17;;;;;;;;;;;21.50;51.70;;;;;;6268586;28;19920;-58
2023/05/12 06:14:19;;;;;;;;;;;21.90;52.10;;;;;;6253778;28;19923;-58
2023/05/12 06:17:20;;;;;;;;;;;21.40;51.80;;;;;;6264360;28;19939;-59
2023/05/12 06:20:23;;;;;;;;;;;21.70;52.00;;;;;;6261458;28;19924;-59
2023/05/12 06:23:25;;;;;;;;;;;21.50;50.30;;;;;;6284049;28;19920;-59
2023/05/12 06:26:26;;;;;;;;;;;21.80;52.00;;;;;;6273574;28;19920;-58
2023/05/12 06:29:30;;;;;;;;;;;21.60;51.70;;;;;;6264466;28;19925;-60
2023/05/12 06:32:32;;;;;;;;;;;21.90;52.00;;;;;;6281725;28;19920;-58
2023/05/12 06:35:35;;;;;;;;;;;21.20;51.50;;;;;;6265999;28;19928;-59
2023/05/12 06:38:39;;;;;;;;;;;21.40;51.60;;;;;;6283574;28;19948;-59
2023/05/12 06:41:41;;;;;;;;;;;21.60;51.70;;;;;;6283011;28;20371;-59
2023/05/12 06:44:47;;;;;;;;;;;21.80;51.80;;;;;;6282349;28;19950;-60
2023/05/12 06:47:49;;;;;;;;;;;21.80;51.60;;;;;;6280626;28;19924;-59
2023/05/12 06:50:50;;;;;;;;;;;21.60;50.90;;;;;;6275155;28;19930;-59
2023/05/12 06:53:52;;;;;;;;;;;21.60;51.70;;;;;;6275089;28;20025;-59
2023/05/12 06:56:53;;;;;;;;;;;20.20;50.60;;;;;;6277643;28;19920;-59
2023/05/12 06:59:55;;;;;;;;;;;21.60;51.50;;;;;;6272851;28;19966;-57
2023/05/12 07:02:56;;;;;;;;;;;21.60;51.70;;;;;;6270493;28;19954;-60
2023/05/12 07:05:58;;;;;;;;;;;21.70;51.50;;;;;;6269218;28;20555;-60
2023/05/12 07:09:02;;;;;;;;;;;21.60;51.30;;;;;;6268259;28;19923;-59
2023/05/12 07:12:05;;;;;;;;;;;21.80;49.50;;;;;;6271005;28;20007;-58
2023/05/12 07:15:09;;;;;;;;;;;21.20;51.70;;;;;;6273391;28;19978;-56
2023/05/12 07:18:11;;;;;;;;;;;21.30;51.80;;;;;;6258057;28;19960;-58
2023/05/12 07:21:13;;;;;;;;;;;20.90;51.00;;;;;;6277912;28;19928;-58
2023/05/12 07:24:15;;;;;;;;;;;21.80;50.90;;;;;;6278033;28;20414;-59
2023/05/12 07:27:20;;;;;;;;;;;22.10;51.50;;;;;;6265492;28;19927;-58
2023/05/12 07:30:21;;;;;;;;;;;21.60;49.00;;;;;;6269516;28;20693;-54
2023/05/12 07:33:24;;;;;;;;;;;22.20;51.60;;;;;;6271687;28;19916;-53
2023/05/12 07:36:27;;;;;;;;;;;21.90;51.40;;;;;;6270216;28;19916;-59
2023/05/12 07:39:31;;;;;;;;;;;22.40;51.70;;;;;;6268774;28;19974;-58
2023/05/12 07:42:33;;;;;;;;;;;21.60;51.30;;;;;;6248538;28;19921;-57
2023/05/12 07:45:36;;;;;;;;;;;21.70;49.20;;;;;;6268109;28;19920;-58
2023/05/12 07:49:03;;;;;;;;;;;21.70;49.10;;;;;;6271971;28;20054;-58
2023/05/12 07:52:05;;;;;;;;;;;23.00;49.70;;;;;;6259175;28;19923;-58
2023/05/12 07:55:14;;;;;;;;;;;22.00;50.80;;;;;;6271706;28;19920;-59
2023/05/12 07:58:16;;;;;;;;;;;22.30;49.40;;;;;;6269243;28;19982;-59
2023/05/12 08:01:17;;;;;;;;;;;22.90;53.00;;;;;;6263477;28;19920;-57
2023/05/12 08:04:19;;;;;;;;;;;19.90;51.40;;;;;;6272139;28;19916;-58
2023/05/12 08:07:22;;;;;;;;;;;22.00;52.70;;;;;;6272412;28;20581;-58
2023/05/12 08:10:28;;;;;;;;;;;20.20;50.50;;;;;;6273491;28;20330;-58
2023/05/12 08:13:30;;;;;;;;;;;21.40;52.00;;;;;;6272301;28;19924;-59
2023/05/12 08:16:31;;;;;;;;;;;19.80;51.90;;;;;;6246959;28;19916;-58
2023/05/12 08:19:37;;;;;;;;;;;22.10;51.80;;;;;;6239146;28;19943;-59
2023/05/12 08:22:40;;;;;;;;;;;21.30;48.80;;;;;;6244349;28;19917;-53
2023/05/12 08:25:43;;;;;;;;;;;22.10;49.20;;;;;;6243849;28;20640;-58
2023/05/12 08:28:51;;;;;;;;;;;22.80;51.50;;;;;;6245853;28;19916;-59
2023/05/12 08:31:53;;;;;;;;;;;22.20;49.40;;;;;;6243895;28;19947;-59
2023/05/12 08:34:54;;;;;;;;;;;21.60;52.30;;;;;;6236539;28;19942;-59
2023/05/12 08:37:58;;;;;;;;;;;20.80;52.40;;;;;;6246355;28;20022;-57
2023/05/12 08:41:07;;;;;;;;;;;21.80;50.90;;;;;;6262905;28;20499;-57
2023/05/12 08:44:09;;;;;;;;;;;22.40;51.30;;;;;;6274456;28;19942;-59
2023/05/12 08:47:11;;;;;;;;;;;22.10;50.80;;;;;;6265373;28;19986;-59
2023/05/12 08:50:22;;;;;;;;;;;22.30;51.00;;;;;;6211874;28;19952;-59
2023/05/12 08:53:24;;;;;;;;;;;21.80;48.90;;;;;;6261040;28;20647;-58
2023/05/12 08:56:26;;;;;;;;;;;22.00;51.50;;;;;;6263555;28;19916;-56
2023/05/12 08:59:48;;;;;;;;;;;21.10;51.10;;;;;;6252097;28;19921;-57
2023/05/12 09:02:50;;;;;;;;;;;21.40;52.20;;;;;;6261958;28;20299;-58
2023/05/12 09:05:57;;;;;;;;;;;20.80;50.70;;;;;;6239762;28;19920;-58
2023/05/12 09:08:59;;;;;;;;;;;22.20;51.50;;;;;;6267757;28;20042;-57
2023/05/12 09:12:01;;;;;;;;;;;20.70;50.40;;;;;;6263128;28;19931;-58
2023/05/12 09:15:03;;;;;;;;;;;22.70;51.80;;;;;;6264068;28;19946;-58
2023/05/12 09:18:06;;;;;;;;;;;20.10;50.60;;;;;;6243561;28;20188;-58
2023/05/12 09:21:08;;;;;;;;;;;20.50;51.40;;;;;;6261191;28;19923;-58
2023/05/12 09:24:10;;;;;;;;;;;20.60;51.00;;;;;;6263317;28;19923;-58
2023/05/12 09:27:12;;;;;;;;;;;23.70;52.00;;;;;;6259883;28;19920;-58
2023/05/12 09:30:15;;;;;;;;;;;23.60;52.80;;;;;;6267413;28;19921;-58
2023/05/12 09:33:17;;;;;;;;;;;21.00;51.80;;;;;;6263806;28;19916;-57
2023/05/12 09:36:22;;;;;;;;;;;20.90;50.40;;;;;;6264303;28;20654;-58
2023/05/12 09:39:28;;;;;;;;;;;21.80;51.30;;;;;;6242720;28;20523;-58
2023/05/12 09:42:31;;;;;;;;;;;22.50;49.00;;;;;;6263021;28;19946;-57
2023/05/12 09:45:33;;;;;;;;;;;20.60;50.60;;;;;;6265914;28;20402;-58
2023/05/12 09:48:37;;;;;;;;;;;23.80;51.70;;;;;;6243116;28;19960;-59
2023/05/12 09:51:40;;;;;;;;;;;22.20;51.30;;;;;;6234562;28;19920;-59
2023/05/12 09:54:42;;;;;;;;;;;22.70;51.80;;;;;;6240731;28;19929;-58
2023/05/12 09:57:44;;;;;;;;;;;21.80;50.80;;;;;;6232776;28;19916;-58
2023/05/12 10:00:45;;;;;;;;;;;23.00;51.80;;;;;;6260188;28;20037;-58
2023/05/12 10:03:50;;;;;;;;;;;21.80;51.30;;;;;;6255544;28;19924;-58
2023/05/12 10:06:53;;;;;;;;;;;20.20;50.00;;;;;;6240624;28;19924;-58
2023/05/12 10:09:59;;;;;;;;;;;21.40;50.70;;;;;;6257079;28;19974;-59
2023/05/12 10:13:00;;;;;;;;;;;21.70;50.30;;;;;;6255462;28;20893;-58
2023/05/12 10:16:03;;;;;;;;;;;21.30;51.40;;;;;;6260261;28;19920;-58
2023/05/12 10:19:05;;;;;;;;;;;20.70;50.00;;;;;;6250910;28;19943;-59
2023/05/12 10:22:09;;;;;;;;;;;21.60;51.30;;;;;;6256117;28;19927;-59
2023/05/12 10:25:20;;;;;;;;;;;23.40;51.30;;;;;;6247661;28;19920;-58
2023/05/12 10:28:23;;;;;;;;;;;21.10;50.10;;;;;;6257838;28;19927;-59
2023/05/12 10:31:26;;;;;;;;;;;23.10;52.00;;;;;;6255335;28;19924;-58
2023/05/12 10:34:32;;;;;;;;;;;22.20;50.90;;;;;;6239122;28;20520;-59
2023/05/12 10:37:34;;;;;;;;;;;22.60;48.60;;;;;;6255968;28;19920;-59
2023/05/12 10:40:36;;;;;;;;;;;22.30;51.20;;;;;;6238533;28;19921;-59
2023/05/12 10:43:38;;;;;;;;;;;21.50;50.10;;;;;;6255546;28;20011;-58
2023/05/12 10:46:41;;;;;;;;;;;22.20;50.70;;;;;;6195150;28;20727;-58
2023/05/12 10:49:43;;;;;;;;;;;21.60;50.00;;;;;;6213207;28;19956;-59
2023/05/12 10:52:51;;;;;;;;;;;21.40;51.20;;;;;;6209390;28;20565;-58
2023/05/12 10:55:56;;;;;;;;;;;20.30;48.60;;;;;;6214013;28;20579;-59
2023/05/12 10:59:11;;;;;;;;;;;22.40;50.30;;;;;;6200712;28;20509;-59
2023/05/12 11:02:15;;;;;;;;;;;21.30;49.00;;;;;;6215941;28;19921;-59
2023/05/12 11:05:18;;;;;;;;;;;21.40;49.50;;;;;;6195798;28;20542;-58
2023/05/12 11:08:19;;;;;;;;;;;24.20;51.60;;;;;;6198701;28;19921;-59
2023/05/12 11:11:23;;;;;;;;;;;22.40;50.20;;;;;;6214982;28;19921;-58
2023/05/12 11:14:26;;;;;;;;;;;19.90;48.30;;;;;;6215030;28;19921;-59
2023/05/12 11:17:28;;;;;;;;;;;21.00;48.60;;;;;;6240098;28;20120;-58
2023/05/12 11:20:32;;;;;;;;;;;22.40;50.10;;;;;;6271418;28;19946;-59
2023/05/12 11:23:33;;;;;;;;;;;21.60;47.30;;;;;;6268663;28;19921;-58
2023/05/12 11:26:35;;;;;;;;;;;21.30;50.10;;;;;;6269485;28;19951;-59
2023/05/12 11:29:38;;;;;;;;;;;22.10;49.50;;;;;;6272365;28;19978;-59
2023/05/12 11:32:40;;;;;;;;;;;23.90;50.80;;;;;;6271722;28;20610;-58
2023/05/12 11:35:42;;;;;;;;;;;22.40;50.10;;;;;;6245583;28;20425;-59
2023/05/12 11:38:48;;;;;;;;;;;23.00;50.70;;;;;;6269320;28;20361;-57
2023/05/12 11:41:51;;;;;;;;;;;22.70;49.10;;;;;;6268450;28;19926;-57
2023/05/12 11:45:07;;;;;;;;;;;22.60;49.00;;;;;;6263762;28;20029;-57
2023/05/12 11:48:10;;;;;;;;;;;22.20;49.70;;;;;;6267684;28;20583;-58
2023/05/12 11:51:11;;;;;;;;;;;22.40;49.20;;;;;;6248664;28;19972;-58
2023/05/12 11:54:13;;;;;;;;;;;22.80;49.80;;;;;;6273618;28;19920;-58
2023/05/12 11:57:30;;;;;;;;;;;22.80;49.10;;;;;;6278234;28;20178;-59
2023/05/12 12:00:33;;;;;;;;;;;21.80;48.40;;;;;;6260480;28;19985;-58
2023/05/12 12:03:45;;;;;;;;;;;24.70;50.00;;;;;;6278551;28;19926;-58
2023/05/12 12:06:47;;;;;;;;;;;21.70;49.00;;;;;;6277427;28;20007;-59
2023/05/12 12:09:50;;;;;;;;;;;22.40;49.20;;;;;;6276377;28;20647;-60
2023/05/12 12:12:53;;;;;;;;;;;24.60;48.10;;;;;;6272857;28;19920;-59
2023/05/12 12:16:02;;;;;;;;;;;22.80;48.70;;;;;;6277779;28;20491;-58
2023/05/12 12:19:03;;;;;;;;;;;22.80;48.80;;;;;;6277671;28;19947;-58
2023/05/12 12:22:06;;;;;;;;;;;23.90;50.30;;;;;;6277451;28;20441;-58
2023/05/12 12:25:08;;;;;;;;;;;22.20;48.60;;;;;;6259240;28;19955;-58
2023/05/12 12:28:09;;;;;;;;;;;22.50;48.50;;;;;;6279340;28;19924;-60
2023/05/12 12:31:27;;;;;;;;;;;22.20;48.60;;;;;;6277676;28;19920;-58
2023/05/12 12:34:58;;;;;;;;;;;22.60;46.60;;;;;;6262611;28;20659;-58
2023/05/12 12:38:00;;;;;;;;;;;22.60;46.70;;;;;;6279622;28;19921;-59
2023/05/12 12:41:01;;;;;;;;;;;23.60;48.60;;;;;;6277384;28;19928;-59
2023/05/12 12:44:03;;;;;;;;;;;22.70;48.40;;;;;;6276976;28;20413;-58
2023/05/12 12:47:06;;;;;;;;;;;22.20;47.60;;;;;;6279156;28;19920;-58
2023/05/12 12:50:10;;;;;;;;;;;23.20;46.70;;;;;;6282769;28;20456;-58
2023/05/12 12:53:12;;;;;;;;;;;23.30;47.90;;;;;;6284571;28;19924;-58
2023/05/12 12:56:14;;;;;;;;;;;20.60;46.50;;;;;;6282493;28;19925;-58
2023/05/12 12:59:15;;;;;;;;;;;22.30;48.40;;;;;;6263464;28;19921;-57
2023/05/12 13:02:17;;;;;;;;;;;23.20;47.70;;;;;;6281961;28;19920;-58
2023/05/12 13:05:18;;;;;;;;;;;23.20;47.70;;;;;;6280803;28;20548;-58
2023/05/12 13:08:46;;;;;;;;;;;23.40;47.60;;;;;;6279438;28;19921;-58
2023/05/12 13:11:49;;;;;;;;;;;23.20;46.50;;;;;;6278123;28;19927;-56
2023/05/12 13:14:50;;;;;;;;;;;22.80;47.20;;;;;;6277669;28;19966;-55
2023/05/12 13:18:17;;;;;;;;;;;23.20;47.40;;;;;;6280337;28;20495;-57
2023/05/12 13:21:22;;;;;;;;;;;23.30;46.40;;;;;;6281950;28;19920;-57
2023/05/12 13:24:24;;;;;;;;;;;23.50;47.10;;;;;;6279643;28;20502;-57
2023/05/12 13:27:26;;;;;;;;;;;23.30;47.40;;;;;;6279743;28;19955;-57
2023/05/12 13:30:30;;;;;;;;;;;23.30;47.40;;;;;;6278064;28;19936;-58
2023/05/12 13:33:32;;;;;;;;;;;23.40;47.30;;;;;;6279377;28;19971;-57
2023/05/12 13:36:34;;;;;;;;;;;23.50;47.30;;;;;;6278353;28;19973;-57
2023/05/12 13:39:35;;;;;;;;;;;23.50;47.30;;;;;;6280581;28;19928;-55
2023/05/12 13:42:37;;;;;;;;;;;23.20;47.10;;;;;;6294167;28;19917;-55
2023/05/12 13:45:39;;;;;;;;;;;23.50;47.20;;;;;;6293767;22;20002;-83
2023/05/12 13:48:40;;;;;;;;;;;23.50;47.70;;;;;;6256708;28;19979;-84
2023/05/12 13:51:42;;;;;;;;;;;23.30;48.40;;;;;;6269773;28;19916;-84
2023/05/12 13:54:50;;;;;;;;;;;23.90;51.50;;;;;;6260787;28;19935;-83
2023/05/12 13:57:52;;;;;;;;;;;19.60;47.80;;;;;;6256994;28;20015;-83
2023/05/12 14:00:54;;;;;;;;;;;21.30;46.30;;;;;;6256556;28;19931;-83
2023/05/12 14:03:57;;;;;;;;;;;22.80;47.60;;;;;;6259452;28;19927;-83
2023/05/12 14:07:02;;;;;;;;;;;23.60;48.30;;;;;;6256904;28;20410;-83
2023/05/12 14:10:04;;;;;;;;;;;23.20;47.90;;;;;;6270617;28;19932;-83
2023/05/12 14:13:06;;;;;;;;;;;22.40;46.30;;;;;;6248799;28;19921;-85
2023/05/12 14:16:12;;;;;;;;;;;22.20;47.40;;;;;;6265812;28;20010;-84
2023/05/12 14:19:14;;;;;;;;;;;22.20;49.40;;;;;;6250404;28;19931;-84
2023/05/12 14:22:16;;;;;;;;;;;20.60;47.20;;;;;;6255890;28;20118;-84
2023/05/12 14:25:29;;;;;;;;;;;20.70;47.10;;;;;;6259478;28;19924;-85
2023/05/12 14:28:32;;;;;;;;;;;22.00;47.90;;;;;;6243619;28;19931;-85
2023/05/12 14:31:33;;;;;;;;;;;22.20;47.50;;;;;;6254134;28;20315;-84
2023/05/12 14:34:35;;;;;;;;;;;21.90;49.00;;;;;;6248604;28;19944;-84
2023/05/12 14:37:41;;;;;;;;;;;22.60;47.30;;;;;;6241869;28;19971;-86
2023/05/12 14:45:18;;;;;;;;;;;21.80;47.20;;;;;;6208887;28;19921;-86
2023/05/12 14:48:21;;;;;;;;;;;23.30;48.00;;;;;;6250228;28;19921;-84
2023/05/12 14:51:23;;;;;;;;;;;23.80;47.80;;;;;;6228281;28;19931;-86
2023/05/12 14:54:25;;;;;;;;;;;22.70;49.50;;;;;;6243420;28;19967;-85
2023/05/12 14:57:27;;;;;;;;;;;23.10;48.60;;;;;;6235331;28;20016;-86
2023/05/12 15:00:33;;;;;;;;;;;21.10;49.70;;;;;;6236681;28;20473;-82
2023/05/12 15:03:34;;;;;;;;;;;20.90;46.30;;;;;;6261508;28;20032;-84
2023/05/12 15:06:38;;;;;;;;;;;22.50;49.00;;;;;;6264384;28;19928;-84
2023/05/12 15:09:40;;;;;;;;;;;20.40;50.00;;;;;;6265679;28;19991;-85
2023/05/12 15:12:41;;;;;;;;;;;22.50;49.80;;;;;;6268253;28;19931;-85
2023/05/12 15:15:45;;;;;;;;;;;20.70;48.20;;;;;;6270554;28;19952;-84
2023/05/12 15:18:47;;;;;;;;;;;23.10;47.40;;;;;;6261414;28;19988;-83
2023/05/12 15:21:49;;;;;;;;;;;20.70;49.30;;;;;;6267292;28;19947;-83
2023/05/12 15:24:52;;;;;;;;;;;20.80;48.60;;;;;;6280130;28;19984;-85
2023/05/12 15:27:56;;;;;;;;;;;23.30;46.60;;;;;;6285840;28;19921;-84
2023/05/12 15:31:03;;;;;;;;;;;22.30;47.50;;;;;;6279529;28;19920;-86
2023/05/12 15:34:06;;;;;;;;;;;23.40;47.80;;;;;;6264536;28;20127;-86
2023/05/12 15:37:13;;;;;;;;;;;23.00;48.60;;;;;;6270915;28;20137;-85
2023/05/12 15:40:15;;;;;;;;;;;21.30;46.50;;;;;;6271646;28;19943;-84
2023/05/12 15:43:29;;;;;;;;;;;25.10;49.50;;;;;;6280556;28;19932;-86
2023/05/12 15:46:34;;;;;;;;;;;23.80;46.90;;;;;;6246518;28;19931;-86
2023/05/12 15:49:39;;;;;;;;;;;23.10;48.10;;;;;;6231998;28;19952;-85
2023/05/12 15:52:42;;;;;;;;;;;21.20;47.00;;;;;;6199067;28;19948;-86
2023/05/12 15:55:45;;;;;;;;;;;22.20;47.50;;;;;;6180304;28;19961;-85
2023/05/12 15:58:48;;;;;;;;;;;21.40;47.90;;;;;;6181176;28;19910;-86
2023/05/12 16:01:51;;;;;;;;;;;26.00;49.00;;;;;;6190296;28;20327;-86
2023/05/12 16:04:55;;;;;;;;;;;20.40;46.80;;;;;;6176772;28;19973;-85
2023/05/12 16:07:57;;;;;;;;;;;22.80;48.70;;;;;;6189581;28;19922;-85
2023/05/12 16:10:59;;;;;;;;;;;22.40;47.70;;;;;;6177960;28;19962;-86
2023/05/12 16:14:02;;;;;;;;;;;23.10;48.10;;;;;;6181295;28;19924;-85
2023/05/12 16:17:09;;;;;;;;;;;20.00;46.80;;;;;;6195817;28;19950;-86
2023/05/12 16:20:16;;;;;;;;;;;21.70;45.80;;;;;;6193445;28;19941;-86
2023/05/12 16:23:22;;;;;;;;;;;20.70;45.20;;;;;;6232127;28;19928;-87
2023/05/12 16:26:23;;;;;;;;;;;24.70;48.20;;;;;;6276824;28;20546;-87
2023/05/12 16:29:25;;;;;;;;;;;21.40;47.80;;;;;;6252842;28;19921;-86
2023/05/12 16:32:28;;;;;;;;;;;23.50;49.50;;;;;;6252901;28;19921;-87
2023/05/12 16:35:30;;;;;;;;;;;23.10;48.20;;;;;;6274661;28;19927;-86
2023/05/12 16:38:33;;;;;;;;;;;20.70;48.00;;;;;;6252994;28;20393;-86
2023/05/12 16:41:36;;;;;;;;;;;23.90;49.20;;;;;;6271406;28;19924;-87
2023/05/12 16:44:38;;;;;;;;;;;20.90;48.30;;;;;;6253868;28;19959;-87
2023/05/12 16:47:42;;;;;;;;;;;22.10;46.10;;;;;;6249315;28;20279;-87
2023/05/12 16:50:45;;;;;;;;;;;23.40;48.70;;;;;;6254621;28;19925;-87
2023/05/12 16:53:47;;;;;;;;;;;21.80;49.60;;;;;;6268060;28;19920;-86
2023/05/12 16:56:51;;;;;;;;;;;25.10;49.90;;;;;;6249039;28;19921;-86
2023/05/12 16:59:52;;;;;;;;;;;23.40;49.00;;;;;;6248758;28;19989;-86
2023/05/12 17:02:55;;;;;;;;;;;23.00;49.20;;;;;;6250499;28;20532;-88
2023/05/12 17:05:59;;;;;;;;;;;23.50;48.60;;;;;;6249211;28;19920;-87
2023/05/12 17:09:01;;;;;;;;;;;21.60;48.80;;;;;;6245658;28;19928;-86
2023/05/12 17:12:03;;;;;;;;;;;22.50;48.70;;;;;;6272484;28;20027;-85
2023/05/12 17:15:06;;;;;;;;;;;24.20;49.20;;;;;;6259207;28;19992;-86
2023/05/12 17:18:11;;;;;;;;;;;21.30;47.30;;;;;;6271171;28;19920;-86